sensor_id;sensor_type;location;lat;lon;timestamp;pressure;altitude;pressure_sealevel;temperature;humidity
41234;BME280;26968;42.686;23.352;2023-01-20T01:01:30;94124.66;;;7.73;86.92
41234;BME280;26968;42.686;23.352;2023-01-20T01:03:56;94079.94;;;7.40;86.38
41234;BME280;26968;42.686;23.352;2023-01-20T01:06:21;94090.16;;;7.70;86.86
41234;BME280;26968;42.686;23.352;2023-01-20T01:08:47;94128.28;;;7.83;86.86
41234;BME280;26968;42.686;23.352;2023-01-20T01:11:13;94132.88;;;7.72;86.62
41234;BME280;26968;42.686;23.352;2023-01-20T01:13:39;94125.41;;;7.79;86.28
41234;BME280;26968;42.686;23.352;2023-01-20T01:16:09;94105.66;;;7.53;85.96
41234;BME280;26968;42.686;23.352;2023-01-20T01:18:35;94092.97;;;7.55;85.55
41234;BME280;26968;42.686;23.352;2023-01-20T01:21:05;94132.41;;;7.89;85.87
41234;BME280;26968;42.686;23.352;2023-01-20T01:23:31;94006.91;;;7.11;84.61
41234;BME280;26968;42.686;23.352;2023-01-20T01:25:56;94102.59;;;7.64;84.55
41234;BME280;26968;42.686;23.352;2023-01-20T01:28:21;94080.25;;;7.57;84.60
41234;BME280;26968;42.686;23.352;2023-01-20T01:30:47;94116.50;;;7.94;84.05
41234;BME280;26968;42.686;23.352;2023-01-20T01:33:12;94101.19;;;7.96;84.08
41234;BME280;26968;42.686;23.352;2023-01-20T01:35:38;94067.63;;;7.78;83.47
41234;BME280;26968;42.686;23.352;2023-01-20T01:38:03;94043.38;;;7.52;83.55
41234;BME280;26968;42.686;23.352;2023-01-20T01:40:28;94082.34;;;7.84;83.99
41234;BME280;26968;42.686;23.352;2023-01-20T01:42:54;94081.44;;;7.93;83.86
41234;BME280;26968;42.686;23.352;2023-01-20T01:45:22;94042.69;;;7.65;83.40
41234;BME280;26968;42.686;23.352;2023-01-20T01:47:52;94048.75;;;7.65;82.83
41234;BME280;26968;42.686;23.352;2023-01-20T01:50:48;94120.72;;;8.19;82.59
41234;BME280;26968;42.686;23.352;2023-01-20T01:53:16;94129.34;;;8.24;82.29
41234;BME280;26968;42.686;23.352;2023-01-20T01:55:46;94139.81;;;8.34;82.57
41234;BME280;26968;42.686;23.352;2023-01-20T01:58:14;94069.31;;;7.92;83.33
41234;BME280;26968;42.686;23.352;2023-01-20T02:00:41;94109.69;;;8.35;82.66
41234;BME280;26968;42.686;23.352;2023-01-20T02:03:08;94112.28;;;8.59;82.12
41234;BME280;26968;42.686;23.352;2023-01-20T02:05:35;94076.94;;;8.36;80.97
41234;BME280;26968;42.686;23.352;2023-01-20T02:08:02;94090.56;;;8.43;79.48
41234;BME280;26968;42.686;23.352;2023-01-20T02:10:27;94109.63;;;8.59;79.56
41234;BME280;26968;42.686;23.352;2023-01-20T02:12:54;94094.69;;;8.49;79.83
41234;BME280;26968;42.686;23.352;2023-01-20T02:15:25;94108.84;;;8.59;80.10
41234;BME280;26968;42.686;23.352;2023-01-20T02:21:26;94088.63;;;8.49;80.30
41234;BME280;26968;42.686;23.352;2023-01-20T02:34:32;94031.34;;;8.07;81.01
41234;BME280;26968;42.686;23.352;2023-01-20T02:37:21;94063.50;;;8.33;81.83
41234;BME280;26968;42.686;23.352;2023-01-20T02:40:08;94075.63;;;8.52;80.79
41234;BME280;26968;42.686;23.352;2023-01-20T02:42:40;94065.69;;;8.63;81.56
41234;BME280;26968;42.686;23.352;2023-01-20T02:45:31;94062.25;;;8.63;80.31
41234;BME280;26968;42.686;23.352;2023-01-20T02:48:11;93983.19;;;8.15;79.99
41234;BME280;26968;42.686;23.352;2023-01-20T02:50:51;94064.97;;;8.76;79.84
41234;BME280;26968;42.686;23.352;2023-01-20T02:53:19;94010.16;;;8.49;79.85
41234;BME280;26968;42.686;23.352;2023-01-20T02:55:47;93994.38;;;8.44;79.53
41234;BME280;26968;42.686;23.352;2023-01-20T02:58:20;94050.41;;;8.93;80.21
41234;BME280;26968;42.686;23.352;2023-01-20T03:00:51;94020.84;;;8.90;80.10
41234;BME280;26968;42.686;23.352;2023-01-20T03:03:22;93991.75;;;8.77;78.87
41234;BME280;26968;42.686;23.352;2023-01-20T03:05:53;93999.16;;;8.75;78.02
41234;BME280;26968;42.686;23.352;2023-01-20T03:08:21;93991.53;;;8.73;78.38
41234;BME280;26968;42.686;23.352;2023-01-20T03:10:49;93990.66;;;8.45;79.28
41234;BME280;26968;42.686;23.352;2023-01-20T03:13:29;94013.22;;;8.70;78.54
41234;BME280;26968;42.686;23.352;2023-01-20T03:18:22;94048.88;;;8.92;78.77
41234;BME280;26968;42.686;23.352;2023-01-20T03:20:48;93989.22;;;8.53;79.09
41234;BME280;26968;42.686;23.352;2023-01-20T03:23:14;94051.69;;;8.95;80.22
41234;BME280;26968;42.686;23.352;2023-01-20T03:25:39;94052.97;;;8.98;79.44
41234;BME280;26968;42.686;23.352;2023-01-20T03:28:05;94044.97;;;9.03;78.96
41234;BME280;26968;42.686;23.352;2023-01-20T03:30:31;93985.53;;;8.68;78.58
41234;BME280;26968;42.686;23.352;2023-01-20T03:32:56;94054.47;;;9.04;79.02
41234;BME280;26968;42.686;23.352;2023-01-20T03:35:22;93970.19;;;8.37;80.31
41234;BME280;26968;42.686;23.352;2023-01-20T03:37:48;94048.56;;;8.93;81.23
41234;BME280;26968;42.686;23.352;2023-01-20T03:40:14;94052.59;;;9.04;79.72
41234;BME280;26968;42.686;23.352;2023-01-20T03:43:00;94051.81;;;9.04;80.22
41234;BME280;26968;42.686;23.352;2023-01-20T03:48:11;94057.59;;;8.92;82.40
41234;BME280;26968;42.686;23.352;2023-01-20T03:50:58;94051.75;;;8.76;83.00
41234;BME280;26968;42.686;23.352;2023-01-20T03:59:32;93976.03;;;8.67;84.85
41234;BME280;26968;42.686;23.352;2023-01-20T04:02:01;93999.47;;;8.87;84.00
41234;BME280;26968;42.686;23.352;2023-01-20T04:04:28;93961.88;;;8.76;83.01
41234;BME280;26968;42.686;23.352;2023-01-20T04:06:54;94008.94;;;9.07;84.46
41234;BME280;26968;42.686;23.352;2023-01-20T04:09:27;94007.06;;;9.07;84.96
41234;BME280;26968;42.686;23.352;2023-01-20T04:11:53;94015.19;;;8.97;84.59
41234;BME280;26968;42.686;23.352;2023-01-20T04:14:19;93924.63;;;8.45;83.34
41234;BME280;26968;42.686;23.352;2023-01-20T04:17:10;93958.50;;;8.71;84.17
41234;BME280;26968;42.686;23.352;2023-01-20T04:19:37;93911.72;;;8.58;83.87
41234;BME280;26968;42.686;23.352;2023-01-20T04:22:28;93986.38;;;8.96;83.86
41234;BME280;26968;42.686;23.352;2023-01-20T04:25:00;93912.38;;;8.49;83.94
41234;BME280;26968;42.686;23.352;2023-01-20T04:27:27;93893.59;;;8.51;84.35
41234;BME280;26968;42.686;23.352;2023-01-20T04:29:53;93898.31;;;8.54;84.00
41234;BME280;26968;42.686;23.352;2023-01-20T04:32:18;93973.38;;;8.99;83.05
41234;BME280;26968;42.686;23.352;2023-01-20T04:34:43;93869.75;;;8.24;82.29
41234;BME280;26968;42.686;23.352;2023-01-20T04:37:09;93877.00;;;8.32;82.88
41234;BME280;26968;42.686;23.352;2023-01-20T04:39:34;93973.16;;;8.96;83.44
41234;BME280;26968;42.686;23.352;2023-01-20T04:42:00;93909.47;;;8.65;84.09
41234;BME280;26968;42.686;23.352;2023-01-20T04:44:25;93938.38;;;8.88;84.74
41234;BME280;26968;42.686;23.352;2023-01-20T04:46:55;93947.78;;;8.81;84.80
41234;BME280;26968;42.686;23.352;2023-01-20T04:49:21;93946.81;;;8.77;84.09
41234;BME280;26968;42.686;23.352;2023-01-20T04:51:46;93897.03;;;8.51;84.34
41234;BME280;26968;42.686;23.352;2023-01-20T04:54:11;93973.47;;;9.08;84.42
41234;BME280;26968;42.686;23.352;2023-01-20T04:56:37;93942.88;;;8.88;84.62
41234;BME280;26968;42.686;23.352;2023-01-20T04:59:02;93884.31;;;8.54;83.96
41234;BME280;26968;42.686;23.352;2023-01-20T05:01:28;93937.00;;;8.77;83.71
41234;BME280;26968;42.686;23.352;2023-01-20T05:03:53;93948.56;;;8.95;83.13
41234;BME280;26968;42.686;23.352;2023-01-20T05:06:19;93892.31;;;8.48;83.36
41234;BME280;26968;42.686;23.352;2023-01-20T05:08:44;93996.50;;;9.07;82.96
41234;BME280;26968;42.686;23.352;2023-01-20T05:11:09;94011.72;;;8.83;83.23
41234;BME280;26968;42.686;23.352;2023-01-20T05:13:35;93925.97;;;7.73;83.79
41234;BME280;26968;42.686;23.352;2023-01-20T05:16:05;94020.72;;;7.93;86.49
41234;BME280;26968;42.686;23.352;2023-01-20T05:18:31;93960.59;;;7.48;88.32
41234;BME280;26968;42.686;23.352;2023-01-20T05:20:58;93892.19;;;7.32;88.57
41234;BME280;26968;42.686;23.352;2023-01-20T05:23:23;93982.31;;;7.82;88.85
41234;BME280;26968;42.686;23.352;2023-01-20T05:25:52;93932.53;;;7.33;88.31
41234;BME280;26968;42.686;23.352;2023-01-20T05:28:18;94012.41;;;7.81;90.10
41234;BME280;26968;42.686;23.352;2023-01-20T05:30:44;93981.84;;;7.38;90.15
41234;BME280;26968;42.686;23.352;2023-01-20T05:33:10;94023.66;;;7.68;91.77
41234;BME280;26968;42.686;23.352;2023-01-20T05:35:39;94002.22;;;7.32;92.93
41234;BME280;26968;42.686;23.352;2023-01-20T05:38:05;93994.84;;;7.29;94.25
41234;BME280;26968;42.686;23.352;2023-01-20T05:40:30;93995.13;;;7.51;93.94
41234;BME280;26968;42.686;23.352;2023-01-20T05:42:59;93923.50;;;6.96;92.38
41234;BME280;26968;42.686;23.352;2023-01-20T05:45:25;94007.59;;;7.46;92.20
41234;BME280;26968;42.686;23.352;2023-01-20T05:47:54;94025.41;;;7.78;92.27
41234;BME280;26968;42.686;23.352;2023-01-20T05:50:20;93992.94;;;7.77;92.52
41234;BME280;26968;42.686;23.352;2023-01-20T05:52:45;93985.09;;;7.91;91.99
41234;BME280;26968;42.686;23.352;2023-01-20T05:55:11;94019.50;;;8.23;91.87
41234;BME280;26968;42.686;23.352;2023-01-20T05:57:36;94025.72;;;8.32;91.01
41234;BME280;26968;42.686;23.352;2023-01-20T06:00:03;94013.00;;;8.53;91.25
41234;BME280;26968;42.686;23.352;2023-01-20T06:02:31;94012.13;;;8.58;90.93
41234;BME280;26968;42.686;23.352;2023-01-20T06:04:57;93936.66;;;8.00;89.90
41234;BME280;26968;42.686;23.352;2023-01-20T06:07:29;93938.00;;;7.98;88.83
41234;BME280;26968;42.686;23.352;2023-01-20T06:09:55;93991.75;;;8.44;89.78
41234;BME280;26968;42.686;23.352;2023-01-20T06:12:21;93993.88;;;8.42;88.89
41234;BME280;26968;42.686;23.352;2023-01-20T06:14:49;93938.28;;;8.15;88.78
41234;BME280;26968;42.686;23.352;2023-01-20T06:17:14;93995.34;;;8.48;88.54
41234;BME280;26968;42.686;23.352;2023-01-20T06:19:40;93942.34;;;8.07;88.88
41234;BME280;26968;42.686;23.352;2023-01-20T06:22:06;94010.00;;;8.60;88.79
41234;BME280;26968;42.686;23.352;2023-01-20T06:24:32;94033.56;;;8.88;89.19
41234;BME280;26968;42.686;23.352;2023-01-20T06:26:57;93978.44;;;8.49;88.91
41234;BME280;26968;42.686;23.352;2023-01-20T06:29:23;94036.50;;;8.87;88.82
41234;BME280;26968;42.686;23.352;2023-01-20T06:31:48;93977.38;;;8.32;87.89
41234;BME280;26968;42.686;23.352;2023-01-20T06:34:14;94050.31;;;8.84;87.72
41234;BME280;26968;42.686;23.352;2023-01-20T06:36:39;93901.38;;;8.10;89.53
41234;BME280;26968;42.686;23.352;2023-01-20T06:39:05;93901.25;;;8.01;89.22
41234;BME280;26968;42.686;23.352;2023-01-20T06:41:30;93972.38;;;8.49;88.91
41234;BME280;26968;42.686;23.352;2023-01-20T06:43:55;94000.63;;;8.67;88.54
41234;BME280;26968;42.686;23.352;2023-01-20T06:46:21;93867.34;;;7.76;89.18
41234;BME280;26968;42.686;23.352;2023-01-20T06:48:47;93881.75;;;7.65;89.36
41234;BME280;26968;42.686;23.352;2023-01-20T06:51:15;94016.22;;;8.50;90.29
41234;BME280;26968;42.686;23.352;2023-01-20T06:53:41;94008.41;;;8.59;89.80
41234;BME280;26968;42.686;23.352;2023-01-20T06:56:08;93947.56;;;8.31;89.33
41234;BME280;26968;42.686;23.352;2023-01-20T06:58:34;94006.41;;;8.69;89.51
41234;BME280;26968;42.686;23.352;2023-01-20T07:01:06;94013.56;;;8.69;89.20
41234;BME280;26968;42.686;23.352;2023-01-20T07:03:33;93815.72;;;7.51;89.46
41234;BME280;26968;42.686;23.352;2023-01-20T07:06:01;93815.63;;;7.56;89.36
41234;BME280;26968;42.686;23.352;2023-01-20T07:08:28;94007.03;;;8.94;89.03
41234;BME280;26968;42.686;23.352;2023-01-20T07:10:53;93827.03;;;7.70;87.59
41234;BME280;26968;42.686;23.352;2023-01-20T07:13:19;93989.38;;;8.75;87.25
41234;BME280;26968;42.686;23.352;2023-01-20T07:15:44;94000.09;;;8.98;86.86
41234;BME280;26968;42.686;23.352;2023-01-20T07:18:10;93993.34;;;8.92;86.70
41234;BME280;26968;42.686;23.352;2023-01-20T07:20:35;93868.56;;;8.16;87.34
41234;BME280;26968;42.686;23.352;2023-01-20T07:23:03;93945.41;;;8.66;87.29
41234;BME280;26968;42.686;23.352;2023-01-20T07:25:29;93978.16;;;8.97;87.59
41234;BME280;26968;42.686;23.352;2023-01-20T07:27:54;93991.66;;;8.96;87.44
41234;BME280;26968;42.686;23.352;2023-01-20T07:30:22;93928.25;;;8.63;86.79
41234;BME280;26968;42.686;23.352;2023-01-20T07:32:47;93971.88;;;8.93;86.97
41234;BME280;26968;42.686;23.352;2023-01-20T07:35:13;94007.38;;;9.19;86.06
41234;BME280;26968;42.686;23.352;2023-01-20T07:37:38;93964.66;;;8.99;86.42
41234;BME280;26968;42.686;23.352;2023-01-20T07:40:06;93919.38;;;8.73;86.36
41234;BME280;26968;42.686;23.352;2023-01-20T07:42:31;93967.81;;;8.68;85.07
41234;BME280;26968;42.686;23.352;2023-01-20T07:44:57;94004.91;;;9.09;85.28
41234;BME280;26968;42.686;23.352;2023-01-20T07:47:22;93928.09;;;8.73;85.46
41234;BME280;26968;42.686;23.352;2023-01-20T07:49:47;93908.78;;;8.59;85.92
41234;BME280;26968;42.686;23.352;2023-01-20T07:52:13;93899.38;;;8.53;85.71
41234;BME280;26968;42.686;23.352;2023-01-20T07:54:38;93907.03;;;8.68;85.47
41234;BME280;26968;42.686;23.352;2023-01-20T07:57:04;93863.81;;;8.32;85.67
41234;BME280;26968;42.686;23.352;2023-01-20T07:59:29;93821.56;;;7.99;85.69
41234;BME280;26968;42.686;23.352;2023-01-20T08:01:55;93897.81;;;8.52;84.63
41234;BME280;26968;42.686;23.352;2023-01-20T08:04:20;93849.13;;;7.93;85.84
41234;BME280;26968;42.686;23.352;2023-01-20T08:06:45;93867.97;;;8.19;86.23
41234;BME280;26968;42.686;23.352;2023-01-20T08:09:15;93964.25;;;8.92;86.61
41234;BME280;26968;42.686;23.352;2023-01-20T08:11:40;93911.78;;;8.20;85.59
41234;BME280;26968;42.686;23.352;2023-01-20T08:14:06;93816.31;;;7.81;86.45
41234;BME280;26968;42.686;23.352;2023-01-20T08:16:31;93810.25;;;7.80;85.48
41234;BME280;26968;42.686;23.352;2023-01-20T08:18:57;93852.47;;;7.99;86.83
41234;BME280;26968;42.686;23.352;2023-01-20T08:21:28;93909.34;;;8.56;86.88
41234;BME280;26968;42.686;23.352;2023-01-20T08:23:55;93910.06;;;8.62;87.28
41234;BME280;26968;42.686;23.352;2023-01-20T08:26:21;93809.09;;;7.86;87.20
41234;BME280;26968;42.686;23.352;2023-01-20T08:28:50;93938.22;;;8.52;87.18
41234;BME280;26968;42.686;23.352;2023-01-20T08:31:19;93955.59;;;8.72;86.92
41234;BME280;26968;42.686;23.352;2023-01-20T08:33:45;93891.41;;;8.39;87.36
41234;BME280;26968;42.686;23.352;2023-01-20T08:36:21;93949.25;;;8.87;87.15
41234;BME280;26968;42.686;23.352;2023-01-20T08:38:47;93932.88;;;8.85;87.42
41234;BME280;26968;42.686;23.352;2023-01-20T08:41:16;93814.13;;;8.34;86.75
41234;BME280;26968;42.686;23.352;2023-01-20T08:43:42;93859.56;;;8.77;86.87
41234;BME280;26968;42.686;23.352;2023-01-20T08:46:10;93882.16;;;9.10;86.82
41234;BME280;26968;42.686;23.352;2023-01-20T08:48:39;93833.50;;;8.70;86.07
41234;BME280;26968;42.686;23.352;2023-01-20T08:51:29;93902.31;;;9.34;86.03
41234;BME280;26968;42.686;23.352;2023-01-20T08:53:54;93854.56;;;9.03;86.12
41234;BME280;26968;42.686;23.352;2023-01-20T08:56:20;93908.66;;;9.46;85.47
41234;BME280;26968;42.686;23.352;2023-01-20T08:58:46;93815.56;;;8.95;85.89
41234;BME280;26968;42.686;23.352;2023-01-20T09:01:15;93846.28;;;9.32;85.86
41234;BME280;26968;42.686;23.352;2023-01-20T09:03:41;93811.38;;;9.07;85.64
41234;BME280;26968;42.686;23.352;2023-01-20T09:06:07;93900.44;;;9.48;86.29
41234;BME280;26968;42.686;23.352;2023-01-20T09:08:33;93845.66;;;8.99;85.57
41234;BME280;26968;42.686;23.352;2023-01-20T09:11:25;93885.66;;;9.33;84.58
41234;BME280;26968;42.686;23.352;2023-01-20T09:13:52;93799.16;;;8.84;84.37
41234;BME280;26968;42.686;23.352;2023-01-20T09:16:18;93806.09;;;8.80;83.99
41234;BME280;26968;42.686;23.352;2023-01-20T09:18:43;93913.81;;;9.29;83.00
41234;BME280;26968;42.686;23.352;2023-01-20T09:21:09;93875.50;;;8.85;81.15
41234;BME280;26968;42.686;23.352;2023-01-20T09:23:37;93894.38;;;9.34;83.77
41234;BME280;26968;42.686;23.352;2023-01-20T09:26:04;93889.78;;;9.25;82.54
41234;BME280;26968;42.686;23.352;2023-01-20T09:28:30;93832.91;;;8.87;84.82
41234;BME280;26968;42.686;23.352;2023-01-20T09:30:59;93825.88;;;8.96;83.33
41234;BME280;26968;42.686;23.352;2023-01-20T09:33:25;93883.94;;;9.28;84.25
41234;BME280;26968;42.686;23.352;2023-01-20T09:35:55;93730.66;;;8.33;82.62
41234;BME280;26968;42.686;23.352;2023-01-20T09:38:21;93810.00;;;8.96;83.67
41234;BME280;26968;42.686;23.352;2023-01-20T09:43:59;93869.28;;;9.45;83.79
41234;BME280;26968;42.686;23.352;2023-01-20T09:46:38;93857.63;;;9.46;83.23
41234;BME280;26968;42.686;23.352;2023-01-20T09:49:59;93870.56;;;9.34;81.46
41234;BME280;26968;42.686;23.352;2023-01-20T09:52:46;93827.03;;;9.04;82.92
41234;BME280;26968;42.686;23.352;2023-01-20T09:58:40;93847.38;;;9.31;83.14
41234;BME280;26968;42.686;23.352;2023-01-20T10:06:41;93687.03;;;8.85;83.34
41234;BME280;26968;42.686;23.352;2023-01-20T10:11:40;93732.72;;;9.57;83.44
41234;BME280;26968;42.686;23.352;2023-01-20T10:14:24;93763.25;;;10.17;82.04
41234;BME280;26968;42.686;23.352;2023-01-20T10:17:16;93720.38;;;10.15;80.38
41234;BME280;26968;42.686;23.352;2023-01-20T10:20:04;93793.72;;;11.24;80.45
41234;BME280;26968;42.686;23.352;2023-01-20T10:22:44;93698.66;;;10.83;78.58
41234;BME280;26968;42.686;23.352;2023-01-20T10:25:16;93744.56;;;11.35;78.92
41234;BME280;26968;42.686;23.352;2023-01-20T10:27:50;93769.84;;;11.33;74.20
41234;BME280;26968;42.686;23.352;2023-01-20T10:30:18;93786.09;;;11.48;73.71
41234;BME280;26968;42.686;23.352;2023-01-20T10:33:07;93816.13;;;11.75;71.99
41234;BME280;26968;42.686;23.352;2023-01-20T10:35:54;93648.03;;;10.36;73.44
41234;BME280;26968;42.686;23.352;2023-01-20T10:38:42;93761.97;;;10.93;74.01
41234;BME280;26968;42.686;23.352;2023-01-20T10:43:55;93822.31;;;11.61;73.54
41234;BME280;26968;42.686;23.352;2023-01-20T10:56:46;93784.28;;;10.92;74.68
41234;BME280;26968;42.686;23.352;2023-01-20T10:59:30;93767.59;;;10.92;74.87
41234;BME280;26968;42.686;23.352;2023-01-20T11:02:02;93750.91;;;10.91;75.07
41234;BME280;26968;42.686;23.352;2023-01-20T11:04:30;93637.09;;;10.21;75.05
41234;BME280;26968;42.686;23.352;2023-01-20T11:06:58;93798.41;;;11.18;74.97
41234;BME280;26968;42.686;23.352;2023-01-20T11:09:35;93812.00;;;11.34;75.17
41234;BME280;26968;42.686;23.352;2023-01-20T11:12:05;93750.25;;;10.77;74.61
41234;BME280;26968;42.686;23.352;2023-01-20T11:14:33;93770.13;;;10.97;74.38
41234;BME280;26968;42.686;23.352;2023-01-20T11:17:03;93835.25;;;11.20;74.50
41234;BME280;26968;42.686;23.352;2023-01-20T11:19:57;93831.31;;;11.09;73.93
41234;BME280;26968;42.686;23.352;2023-01-20T11:22:29;93824.44;;;11.08;73.25
41234;BME280;26968;42.686;23.352;2023-01-20T11:24:57;93817.34;;;10.86;73.04
41234;BME280;26968;42.686;23.352;2023-01-20T11:27:27;93796.28;;;10.41;74.63
41234;BME280;26968;42.686;23.352;2023-01-20T11:30:03;93806.59;;;9.90;77.58
41234;BME280;26968;42.686;23.352;2023-01-20T11:32:31;93834.31;;;9.70;79.30
41234;BME280;26968;42.686;23.352;2023-01-20T11:34:58;93824.53;;;9.35;82.46
41234;BME280;26968;42.686;23.352;2023-01-20T11:37:36;93781.50;;;8.93;84.04
41234;BME280;26968;42.686;23.352;2023-01-20T11:40:26;93825.97;;;9.05;85.49
41234;BME280;26968;42.686;23.352;2023-01-20T11:42:53;93821.75;;;8.90;86.86
41234;BME280;26968;42.686;23.352;2023-01-20T11:48:22;93830.78;;;8.75;87.04
41234;BME280;26968;42.686;23.352;2023-01-20T11:50:50;93833.44;;;8.62;86.95
41234;BME280;26968;42.686;23.352;2023-01-20T11:53:29;93733.53;;;7.90;87.03
41234;BME280;26968;42.686;23.352;2023-01-20T11:56:03;93739.75;;;7.67;82.40
41234;BME280;26968;42.686;23.352;2023-01-20T11:58:48;93822.09;;;7.83;80.25
41234;BME280;26968;42.686;23.352;2023-01-20T12:01:26;93845.97;;;7.91;80.28
41234;BME280;26968;42.686;23.352;2023-01-20T12:06:24;93837.47;;;7.43;80.93
41234;BME280;26968;42.686;23.352;2023-01-20T12:09:09;93844.88;;;7.22;81.08
41234;BME280;26968;42.686;23.352;2023-01-20T12:11:41;93804.31;;;6.57;81.64
41234;BME280;26968;42.686;23.352;2023-01-20T12:16:58;93772.25;;;5.44;84.31
41234;BME280;26968;42.686;23.352;2023-01-20T12:19:32;93820.63;;;5.77;86.64
41234;BME280;26968;42.686;23.352;2023-01-20T12:22:02;93863.63;;;6.02;87.61
41234;BME280;26968;42.686;23.352;2023-01-20T12:27:41;93865.88;;;5.79;89.89
41234;BME280;26968;42.686;23.352;2023-01-20T12:30:30;93678.00;;;4.60;89.61
41234;BME280;26968;42.686;23.352;2023-01-20T12:33:00;93887.38;;;5.87;90.95
41234;BME280;26968;42.686;23.352;2023-01-20T12:35:30;93896.59;;;5.89;91.82
41234;BME280;26968;42.686;23.352;2023-01-20T12:38:06;93899.88;;;5.71;91.79
41234;BME280;26968;42.686;23.352;2023-01-20T12:40:48;93966.09;;;5.34;85.55
41234;BME280;26968;42.686;23.352;2023-01-20T12:43:32;93972.97;;;5.15;89.00
41234;BME280;26968;42.686;23.352;2023-01-20T12:51:55;93985.22;;;4.40;89.23
41234;BME280;26968;42.686;23.352;2023-01-20T12:54:38;93972.66;;;4.26;88.66
41234;BME280;26968;42.686;23.352;2023-01-20T13:11:22;93972.28;;;3.52;89.88
41234;BME280;26968;42.686;23.352;2023-01-20T13:22:01;93984.91;;;3.70;91.74
41234;BME280;26968;42.686;23.352;2023-01-20T13:24:33;93929.75;;;3.25;91.04
41234;BME280;26968;42.686;23.352;2023-01-20T13:27:00;93941.31;;;3.34;91.03
41234;BME280;26968;42.686;23.352;2023-01-20T13:37:47;94006.69;;;3.71;91.48
41234;BME280;26968;42.686;23.352;2023-01-20T13:48:37;93988.25;;;3.45;89.89
41234;BME280;26968;42.686;23.352;2023-01-20T13:51:40;93876.19;;;2.85;91.36
41234;BME280;26968;42.686;23.352;2023-01-20T13:56:47;94021.13;;;3.78;90.45
41234;BME280;26968;42.686;23.352;2023-01-20T13:59:13;94007.19;;;3.63;90.20
41234;BME280;26968;42.686;23.352;2023-01-20T14:01:38;94062.59;;;3.92;88.64
41234;BME280;26968;42.686;23.352;2023-01-20T14:06:30;94045.47;;;3.74;88.41
41234;BME280;26968;42.686;23.352;2023-01-20T14:08:58;94071.78;;;3.89;88.00
41234;BME280;26968;42.686;23.352;2023-01-20T14:11:26;94045.47;;;3.64;88.41
41234;BME280;26968;42.686;23.352;2023-01-20T14:13:54;94074.66;;;3.93;88.10
41234;BME280;26968;42.686;23.352;2023-01-20T14:18:55;93991.66;;;3.46;87.83
41234;BME280;26968;42.686;23.352;2023-01-20T14:21:39;94088.34;;;4.15;87.91
41234;BME280;26968;42.686;23.352;2023-01-20T14:24:04;94083.09;;;4.10;87.28
41234;BME280;26968;42.686;23.352;2023-01-20T14:26:30;94074.97;;;4.21;88.16
41234;BME280;26968;42.686;23.352;2023-01-20T14:28:58;94048.44;;;4.13;87.85
41234;BME280;26968;42.686;23.352;2023-01-20T14:31:31;94077.09;;;4.35;87.52
41234;BME280;26968;42.686;23.352;2023-01-20T14:36:43;94096.75;;;4.22;85.72
41234;BME280;26968;42.686;23.352;2023-01-20T14:39:18;94050.03;;;4.04;86.70
41234;BME280;26968;42.686;23.352;2023-01-20T14:41:46;94068.97;;;4.31;86.39
41234;BME280;26968;42.686;23.352;2023-01-20T14:44:20;93996.47;;;3.84;83.78
41234;BME280;26968;42.686;23.352;2023-01-20T14:46:48;94044.28;;;4.17;85.31
41234;BME280;26968;42.686;23.352;2023-01-20T14:49:16;94084.72;;;4.31;82.63
41234;BME280;26968;42.686;23.352;2023-01-20T14:51:43;94070.53;;;4.12;82.69
41234;BME280;26968;42.686;23.352;2023-01-20T14:54:43;94094.38;;;4.20;83.50
41234;BME280;26968;42.686;23.352;2023-01-20T14:59:40;94038.09;;;3.51;83.30
41234;BME280;26968;42.686;23.352;2023-01-20T15:02:15;94096.91;;;3.80;84.67
41234;BME280;26968;42.686;23.352;2023-01-20T15:04:42;94107.13;;;3.76;85.37
41234;BME280;26968;42.686;23.352;2023-01-20T15:07:17;94050.28;;;3.20;83.99
41234;BME280;26968;42.686;23.352;2023-01-20T15:09:50;94051.88;;;3.31;85.78
41234;BME280;26968;42.686;23.352;2023-01-20T15:12:35;94124.06;;;3.54;84.86
41234;BME280;26968;42.686;23.352;2023-01-20T15:20:30;94110.38;;;2.94;85.70
41234;BME280;26968;42.686;23.352;2023-01-20T15:22:58;94168.53;;;3.33;86.63
41234;BME280;26968;42.686;23.352;2023-01-20T15:25:23;94183.53;;;3.43;86.50
41234;BME280;26968;42.686;23.352;2023-01-20T15:27:55;94144.31;;;3.16;84.70
41234;BME280;26968;42.686;23.352;2023-01-20T15:30:25;94201.59;;;3.44;85.80
41234;BME280;26968;42.686;23.352;2023-01-20T15:32:54;94149.00;;;3.14;85.65
41234;BME280;26968;42.686;23.352;2023-01-20T15:35:24;94128.97;;;2.98;85.73
41234;BME280;26968;42.686;23.352;2023-01-20T15:37:51;94211.19;;;3.29;85.15
41234;BME280;26968;42.686;23.352;2023-01-20T15:40:22;94203.09;;;3.30;85.51
41234;BME280;26968;42.686;23.352;2023-01-20T15:42:49;94096.03;;;2.38;85.40
41234;BME280;26968;42.686;23.352;2023-01-20T15:45:16;94234.72;;;3.19;85.93
41234;BME280;26968;42.686;23.352;2023-01-20T15:47:44;94185.97;;;2.86;86.06
41234;BME280;26968;42.686;23.352;2023-01-20T15:50:21;94184.69;;;2.88;86.29
41234;BME280;26968;42.686;23.352;2023-01-20T15:52:48;94214.16;;;3.05;86.05
41234;BME280;26968;42.686;23.352;2023-01-20T15:55:16;94184.19;;;2.59;85.49
41234;BME280;26968;42.686;23.352;2023-01-20T15:57:42;94234.28;;;3.00;84.93
41234;BME280;26968;42.686;23.352;2023-01-20T16:00:15;94246.72;;;3.15;85.75
41234;BME280;26968;42.686;23.352;2023-01-20T16:02:41;94221.59;;;2.87;85.48
41234;BME280;26968;42.686;23.352;2023-01-20T16:05:08;94171.28;;;2.53;84.87
41234;BME280;26968;42.686;23.352;2023-01-20T16:07:35;94212.00;;;2.65;85.45
41234;BME280;26968;42.686;23.352;2023-01-20T16:10:01;94273.47;;;3.17;85.90
41234;BME280;26968;42.686;23.352;2023-01-20T16:12:26;94225.03;;;2.87;85.56
41234;BME280;26968;42.686;23.352;2023-01-20T16:14:52;94193.31;;;2.57;85.65
41234;BME280;26968;42.686;23.352;2023-01-20T16:17:19;94257.59;;;2.96;84.62
41234;BME280;26968;42.686;23.352;2023-01-20T16:19:48;94242.31;;;2.88;84.32
41234;BME280;26968;42.686;23.352;2023-01-20T16:22:14;94257.97;;;3.10;84.92